Time;durP1;ratioP1;P1;durP2;ratioP2;P2;SDS_P1;SDS_P2;PMS_P1;PMS_P2;Temp;Humidity;BMP_temperature;BMP_pressure;BME280_temperature;BME280_humidity;BME280_pressure;Samples;Min_cycle;Max_cycle;Signal;HPM_P1;HPM_P2
2022/08/11 00:01:24;;;;;;;;;;;25.00;47.20;;;;;;5051175;28;20377;-56
2022/08/11 00:03:54;;;;;;;;;;;25.00;47.30;;;;;;5050691;28;19909;-54
2022/08/11 00:06:27;;;;;;;;;;;25.00;47.70;;;;;;5050804;28;20425;-55
2022/08/11 00:08:53;;;;;;;;;;;25.00;47.60;;;;;;5051326;28;19912;-56
2022/08/11 00:11:20;;;;;;;;;;;24.90;47.70;;;;;;5051188;28;20366;-55
2022/08/11 00:13:47;;;;;;;;;;;24.90;47.80;;;;;;5044674;28;19916;-56
2022/08/11 00:16:23;;;;;;;;;;;24.90;48.20;;;;;;5050857;28;20499;-56
2022/08/11 00:18:51;;;;;;;;;;;24.80;48.20;;;;;;5050821;28;19908;-55
2022/08/11 00:21:17;;;;;;;;;;;24.80;49.00;;;;;;5050874;28;19909;-55
2022/08/11 00:23:45;;;;;;;;;;;24.70;49.00;;;;;;5052529;28;19920;-56
2022/08/11 00:26:12;;;;;;;;;;;24.60;48.50;;;;;;5054979;28;19909;-54
2022/08/11 00:28:38;;;;;;;;;;;24.60;49.20;;;;;;5054824;28;20386;-55
2022/08/11 00:31:05;;;;;;;;;;;24.60;48.70;;;;;;5054808;28;19999;-55
2022/08/11 00:33:32;;;;;;;;;;;24.60;49.50;;;;;;5054353;28;20397;-52
2022/08/11 00:35:59;;;;;;;;;;;24.50;48.80;;;;;;5048602;28;20361;-54
2022/08/11 00:38:27;;;;;;;;;;;24.50;50.00;;;;;;5054998;28;19948;-54
2022/08/11 00:40:55;;;;;;;;;;;24.40;49.40;;;;;;5054316;28;19920;-55
2022/08/11 00:43:34;;;;;;;;;;;24.40;49.90;;;;;;5054549;28;20027;-55
2022/08/11 00:46:18;;;;;;;;;;;24.30;49.40;;;;;;5054777;28;19923;-54
2022/08/11 00:48:47;;;;;;;;;;;24.30;49.30;;;;;;5054009;28;19999;-54
2022/08/11 00:51:31;;;;;;;;;;;24.30;49.10;;;;;;5054871;28;20313;-56
2022/08/11 00:54:15;;;;;;;;;;;24.20;48.90;;;;;;5054823;28;20301;-54
2022/08/11 00:57:07;;;;;;;;;;;24.20;50.00;;;;;;5049688;28;19912;-54
2022/08/11 00:59:59;;;;;;;;;;;24.20;49.20;;;;;;5054332;28;19912;-53
2022/08/11 01:02:38;;;;;;;;;;;24.10;49.60;;;;;;5050736;28;19963;-55
2022/08/11 01:05:27;;;;;;;;;;;24.10;49.80;;;;;;5054047;28;19916;-53
2022/08/11 01:08:08;;;;;;;;;;;24.10;50.30;;;;;;5052864;28;20315;-55
2022/08/11 01:10:33;;;;;;;;;;;24.00;49.90;;;;;;5054610;28;19913;-52
2022/08/11 01:13:12;;;;;;;;;;;24.00;50.50;;;;;;5054084;28;19927;-53
2022/08/11 01:15:55;;;;;;;;;;;23.90;50.10;;;;;;5054225;28;19951;-55
2022/08/11 01:18:26;;;;;;;;;;;23.90;49.30;;;;;;5053451;28;20425;-54
2022/08/11 01:21:10;;;;;;;;;;;23.90;49.40;;;;;;5053741;28;19913;-54
2022/08/11 01:23:48;;;;;;;;;;;23.80;49.40;;;;;;5054592;28;19909;-56
2022/08/11 01:26:13;;;;;;;;;;;23.80;49.00;;;;;;5053699;28;19979;-55
2022/08/11 01:28:45;;;;;;;;;;;23.80;49.10;;;;;;5053671;28;20324;-55
2022/08/11 01:31:33;;;;;;;;;;;23.80;48.80;;;;;;5053415;28;19908;-54
2022/08/11 01:34:10;;;;;;;;;;;23.80;49.00;;;;;;5052605;28;20369;-55
2022/08/11 01:36:55;;;;;;;;;;;23.80;48.80;;;;;;5053865;28;19909;-52
2022/08/11 01:39:24;;;;;;;;;;;23.80;48.90;;;;;;5053654;28;19915;-55
2022/08/11 01:45:22;;;;;;;;;;;23.80;49.00;;;;;;5053015;28;20415;-55
2022/08/11 01:47:53;;;;;;;;;;;23.80;49.40;;;;;;5052979;28;20459;-54
2022/08/11 01:50:26;;;;;;;;;;;23.80;50.50;;;;;;5053857;28;19913;-54
2022/08/11 01:52:52;;;;;;;;;;;23.80;50.40;;;;;;5053546;28;20070;-55
2022/08/11 01:55:25;;;;;;;;;;;23.80;50.60;;;;;;5053347;28;20362;-55
2022/08/11 01:58:12;;;;;;;;;;;23.80;50.60;;;;;;5053441;28;19916;-53
2022/08/11 02:00:56;;;;;;;;;;;23.70;51.10;;;;;;5053031;28;19915;-54
2022/08/11 02:03:45;;;;;;;;;;;23.70;51.10;;;;;;5053256;28;19920;-54
2022/08/11 02:09:38;;;;;;;;;;;23.60;51.50;;;;;;5048801;28;19915;-53
2022/08/11 02:12:12;;;;;;;;;;;23.50;51.50;;;;;;4991369;28;19963;-54
2022/08/11 02:15:06;;;;;;;;;;;23.50;51.70;;;;;;4991209;28;20012;-55
2022/08/11 02:17:40;;;;;;;;;;;23.50;51.10;;;;;;4986912;28;19909;-55
2022/08/11 02:26:01;;;;;;;;;;;23.40;52.00;;;;;;4991675;28;19956;-54
2022/08/11 02:28:29;;;;;;;;;;;23.30;52.10;;;;;;4991519;28;19980;-53
2022/08/11 02:34:05;;;;;;;;;;;23.20;52.90;;;;;;4991598;28;19964;-53
2022/08/11 02:36:43;;;;;;;;;;;23.20;53.80;;;;;;4991001;28;19913;-53
2022/08/11 02:39:11;;;;;;;;;;;23.20;53.20;;;;;;4990855;28;20429;-52
2022/08/11 02:44:53;;;;;;;;;;;23.10;53.80;;;;;;4990651;28;20441;-54
2022/08/11 02:47:22;;;;;;;;;;;23.00;54.00;;;;;;5012485;28;19916;-55
2022/08/11 02:49:55;;;;;;;;;;;22.90;53.90;;;;;;5053029;28;19912;-54
2022/08/11 02:52:23;;;;;;;;;;;22.90;53.20;;;;;;5052382;28;19924;-51
2022/08/11 02:55:07;;;;;;;;;;;22.90;54.90;;;;;;5052260;28;19909;-52
2022/08/11 02:57:36;;;;;;;;;;;22.90;54.80;;;;;;5048410;28;19913;-51
2022/08/11 03:00:07;;;;;;;;;;;22.90;54.40;;;;;;5051913;28;19956;-52
2022/08/11 03:02:51;;;;;;;;;;;22.90;54.50;;;;;;5052135;28;19916;-54
2022/08/11 03:05:23;;;;;;;;;;;22.80;54.40;;;;;;5052276;28;19909;-54
2022/08/11 03:07:51;;;;;;;;;;;22.70;54.80;;;;;;5051232;28;20346;-55
2022/08/11 03:10:20;;;;;;;;;;;22.70;55.00;;;;;;5051754;28;19909;-53
2022/08/11 03:19:01;;;;;;;;;;;22.60;54.40;;;;;;5051983;28;19916;-53
2022/08/11 03:21:31;;;;;;;;;;;22.60;54.00;;;;;;5051724;28;19913;-56
2022/08/11 03:24:06;;;;;;;;;;;22.60;54.10;;;;;;5051709;28;19920;-54
2022/08/11 03:26:40;;;;;;;;;;;22.60;55.10;;;;;;5051705;28;20594;-55
2022/08/11 03:29:05;;;;;;;;;;;22.50;55.60;;;;;;5051595;28;20400;-56
2022/08/11 03:31:34;;;;;;;;;;;22.50;54.70;;;;;;5051548;28;19921;-53
2022/08/11 03:34:07;;;;;;;;;;;22.50;54.30;;;;;;5051637;28;19963;-53
2022/08/11 03:36:52;;;;;;;;;;;22.40;54.10;;;;;;5051642;28;19935;-54
2022/08/11 03:39:26;;;;;;;;;;;22.40;54.70;;;;;;5051819;28;19920;-51
2022/08/11 03:42:05;;;;;;;;;;;22.40;54.70;;;;;;5051101;28;19959;-55
2022/08/11 03:44:48;;;;;;;;;;;22.40;55.20;;;;;;5050031;28;19963;-55
2022/08/11 03:47:33;;;;;;;;;;;22.40;54.70;;;;;;5050801;28;20487;-54
2022/08/11 03:50:17;;;;;;;;;;;22.30;55.20;;;;;;5051609;28;19909;-55
2022/08/11 03:53:01;;;;;;;;;;;22.30;55.40;;;;;;5051591;28;19916;-53
2022/08/11 03:55:46;;;;;;;;;;;22.30;56.60;;;;;;5052179;28;19915;-55
2022/08/11 03:58:30;;;;;;;;;;;22.30;55.80;;;;;;5050269;28;20026;-55
2022/08/11 04:01:14;;;;;;;;;;;22.20;56.10;;;;;;5051193;28;19909;-56
2022/08/11 04:03:40;;;;;;;;;;;22.20;55.70;;;;;;5051191;28;19913;-55
2022/08/11 04:06:12;;;;;;;;;;;22.20;57.00;;;;;;5050894;28;20459;-56
2022/08/11 04:08:46;;;;;;;;;;;22.10;55.50;;;;;;5051481;28;19999;-56
2022/08/11 04:11:12;;;;;;;;;;;22.10;55.70;;;;;;5050791;28;20362;-54
2022/08/11 04:15:58;;;;;;;;;;;22.10;55.90;;;;;;5050926;28;19919;-55
2022/08/11 04:16:45;;;;;;;;;;;22.10;56.10;;;;;;5050676;28;19913;-56
2022/08/11 04:19:20;;;;;;;;;;;22.10;55.50;;;;;;5051309;28;19971;-56
2022/08/11 04:22:05;;;;;;;;;;;22.10;55.40;;;;;;5051162;28;19987;-55
2022/08/11 04:24:43;;;;;;;;;;;22.10;55.60;;;;;;5051224;28;19944;-56
2022/08/11 04:27:27;;;;;;;;;;;22.00;55.80;;;;;;5050802;28;19915;-56
2022/08/11 04:30:08;;;;;;;;;;;22.00;55.70;;;;;;5051372;28;19909;-53
2022/08/11 04:32:42;;;;;;;;;;;22.10;55.80;;;;;;5051040;28;19925;-53
2022/08/11 04:35:27;;;;;;;;;;;22.00;55.40;;;;;;5050852;28;19908;-54
2022/08/11 04:37:55;;;;;;;;;;;22.00;55.90;;;;;;5050874;28;19913;-55
2022/08/11 04:40:26;;;;;;;;;;;22.00;56.40;;;;;;5050661;28;19920;-55
2022/08/11 04:43:20;;;;;;;;;;;22.00;55.90;;;;;;5050565;28;19916;-54
2022/08/11 04:46:05;;;;;;;;;;;22.00;56.90;;;;;;5050952;28;19909;-53
2022/08/11 05:03:15;;;;;;;;;;;21.80;57.00;;;;;;5051058;28;20487;-55
2022/08/11 05:05:52;;;;;;;;;;;21.80;57.50;;;;;;5050564;28;19916;-56
2022/08/11 05:08:36;;;;;;;;;;;21.80;57.40;;;;;;5050257;28;19913;-55
2022/08/11 05:11:10;;;;;;;;;;;21.80;57.10;;;;;;5053713;28;19916;-55
2022/08/11 05:36:28;;;;;;;;;;;22.10;56.80;;;;;;5052676;28;20411;-54
2022/08/11 05:58:24;;;;;;;;;;;22.30;57.10;;;;;;5053353;28;19923;-56
2022/08/11 06:00:50;;;;;;;;;;;22.30;56.00;;;;;;5053963;28;19909;-55
2022/08/11 06:03:21;;;;;;;;;;;22.40;56.00;;;;;;5053294;28;19992;-52
2022/08/11 06:05:46;;;;;;;;;;;22.40;55.80;;;;;;5053586;28;19935;-55
2022/08/11 06:08:13;;;;;;;;;;;22.50;55.70;;;;;;5052728;28;19931;-56
2022/08/11 06:10:40;;;;;;;;;;;22.50;55.60;;;;;;5052420;28;19913;-56
2022/08/11 06:13:06;;;;;;;;;;;22.60;55.70;;;;;;5053321;28;19917;-53
2022/08/11 06:15:39;;;;;;;;;;;22.60;55.60;;;;;;5051834;28;19909;-55
2022/08/11 06:18:08;;;;;;;;;;;22.60;55.30;;;;;;5053170;28;19909;-55
2022/08/11 06:20:44;;;;;;;;;;;22.70;54.40;;;;;;5052206;28;20417;-56
2022/08/11 06:23:10;;;;;;;;;;;22.70;54.80;;;;;;5052435;28;19909;-50
2022/08/11 06:25:36;;;;;;;;;;;22.80;55.00;;;;;;5052783;28;19913;-53
2022/08/11 06:28:02;;;;;;;;;;;22.80;54.90;;;;;;5053003;28;19912;-55
2022/08/11 06:30:39;;;;;;;;;;;22.90;54.90;;;;;;5052871;28;19908;-55
2022/08/11 06:33:27;;;;;;;;;;;22.90;54.20;;;;;;5052038;28;20369;-55
2022/08/11 06:36:19;;;;;;;;;;;22.90;53.40;;;;;;5043556;28;20369;-54
2022/08/11 06:38:57;;;;;;;;;;;22.90;53.20;;;;;;5045783;28;19916;-51
2022/08/11 06:41:31;;;;;;;;;;;22.90;53.20;;;;;;5051646;28;19909;-55
2022/08/11 06:44:00;;;;;;;;;;;23.00;52.70;;;;;;5050694;28;19913;-53
2022/08/11 06:46:31;;;;;;;;;;;23.00;53.20;;;;;;5052455;28;19995;-52
2022/08/11 06:49:01;;;;;;;;;;;23.00;53.30;;;;;;5051395;28;19913;-53
2022/08/11 06:51:27;;;;;;;;;;;23.10;53.40;;;;;;5037419;28;20300;-52
2022/08/11 06:53:58;;;;;;;;;;;23.10;53.20;;;;;;5048742;28;20449;-54
2022/08/11 07:02:04;;;;;;;;;;;23.30;53.00;;;;;;5051612;28;19915;-54
2022/08/11 07:04:38;;;;;;;;;;;23.30;52.80;;;;;;5051750;28;19966;-58
2022/08/11 07:15:50;;;;;;;;;;;23.40;52.40;;;;;;5047829;28;19919;-56
2022/08/11 07:29:30;;;;;;;;;;;23.60;52.40;;;;;;5048416;28;19920;-56
2022/08/11 07:32:02;;;;;;;;;;;23.60;52.40;;;;;;5048997;28;19943;-56
2022/08/11 07:34:33;;;;;;;;;;;23.70;52.40;;;;;;5048713;28;19920;-54
2022/08/11 07:37:00;;;;;;;;;;;23.70;52.10;;;;;;5049093;28;20428;-55
2022/08/11 07:39:27;;;;;;;;;;;23.80;52.10;;;;;;5048805;28;20301;-55
2022/08/11 07:41:55;;;;;;;;;;;23.80;52.10;;;;;;5047169;28;19974;-56
2022/08/11 07:44:24;;;;;;;;;;;23.80;52.40;;;;;;5048965;28;19920;-54
2022/08/11 07:52:29;;;;;;;;;;;23.90;51.80;;;;;;5046880;28;19979;-56
2022/08/11 07:54:56;;;;;;;;;;;24.00;51.90;;;;;;5048139;28;19948;-56
2022/08/11 08:19:19;;;;;;;;;;;24.30;51.80;;;;;;5048945;28;19958;-56
2022/08/11 08:21:46;;;;;;;;;;;24.40;51.70;;;;;;5048356;28;19921;-55
2022/08/11 08:24:11;;;;;;;;;;;24.50;51.70;;;;;;5049176;28;19909;-51
2022/08/11 08:32:06;;;;;;;;;;;24.60;51.60;;;;;;5047712;28;19927;-55
2022/08/11 08:34:32;;;;;;;;;;;24.60;51.60;;;;;;5047698;28;19945;-57
2022/08/11 08:36:59;;;;;;;;;;;24.70;51.60;;;;;;5060038;28;19916;-53
2022/08/11 08:39:24;;;;;;;;;;;24.80;51.50;;;;;;5047242;28;19920;-54
2022/08/11 08:41:54;;;;;;;;;;;24.80;51.10;;;;;;5048233;28;19913;-54
2022/08/11 08:44:21;;;;;;;;;;;24.90;51.40;;;;;;5049880;28;19967;-52
2022/08/11 08:46:49;;;;;;;;;;;24.90;51.30;;;;;;5052603;28;19917;-53
2022/08/11 08:49:17;;;;;;;;;;;25.00;51.30;;;;;;5049473;28;19921;-54
2022/08/11 08:51:45;;;;;;;;;;;25.00;51.30;;;;;;5052454;28;19921;-55
2022/08/11 08:54:16;;;;;;;;;;;25.00;51.20;;;;;;5053028;28;19974;-55
2022/08/11 08:56:43;;;;;;;;;;;25.10;51.00;;;;;;5050654;28;20404;-56
2022/08/11 08:59:09;;;;;;;;;;;25.10;51.20;;;;;;5052393;28;20156;-56
2022/08/11 09:01:37;;;;;;;;;;;25.20;51.10;;;;;;5051821;28;19916;-57
2022/08/11 09:04:06;;;;;;;;;;;25.30;51.20;;;;;;5051764;28;19916;-55
2022/08/11 09:06:32;;;;;;;;;;;25.40;51.10;;;;;;5049285;28;20449;-53
2022/08/11 09:08:58;;;;;;;;;;;25.40;51.00;;;;;;5052301;28;19966;-56
2022/08/11 09:14:09;;;;;;;;;;;25.60;51.20;;;;;;5049674;28;20396;-57
2022/08/11 09:16:35;;;;;;;;;;;25.70;50.70;;;;;;5052071;28;19917;-57
2022/08/11 09:19:01;;;;;;;;;;;25.80;51.00;;;;;;5051461;28;20413;-54
2022/08/11 09:21:27;;;;;;;;;;;25.90;50.90;;;;;;5051110;28;19919;-56
2022/08/11 09:29:23;;;;;;;;;;;26.00;50.30;;;;;;5052217;28;20512;-56
2022/08/11 09:31:49;;;;;;;;;;;26.10;50.30;;;;;;5051123;28;19921;-55
2022/08/11 09:34:15;;;;;;;;;;;26.10;50.40;;;;;;5052499;28;19931;-57
2022/08/11 09:42:14;;;;;;;;;;;26.30;50.00;;;;;;5051587;28;19920;-56
2022/08/11 09:44:51;;;;;;;;;;;26.30;50.00;;;;;;5050951;28;19908;-55
2022/08/11 09:47:18;;;;;;;;;;;26.40;50.30;;;;;;5050598;28;20003;-56
2022/08/11 09:49:44;;;;;;;;;;;26.50;50.00;;;;;;5051214;28;19915;-55
2022/08/11 09:52:12;;;;;;;;;;;26.50;49.70;;;;;;5051744;28;19961;-53
2022/08/11 09:54:39;;;;;;;;;;;26.60;49.50;;;;;;5051417;28;19912;-56
2022/08/11 09:59:50;;;;;;;;;;;26.80;48.30;;;;;;5049956;28;19936;-56
2022/08/11 10:02:17;;;;;;;;;;;26.80;48.20;;;;;;5051707;28;19913;-57
2022/08/11 10:04:47;;;;;;;;;;;26.90;48.10;;;;;;5051472;28;20274;-56
2022/08/11 10:07:18;;;;;;;;;;;26.90;47.50;;;;;;5050033;28;19962;-56
2022/08/11 10:09:58;;;;;;;;;;;27.00;47.70;;;;;;5051188;28;19999;-56
2022/08/11 10:12:32;;;;;;;;;;;27.10;47.50;;;;;;5050759;28;19920;-58
2022/08/11 10:20:33;;;;;;;;;;;27.40;46.50;;;;;;4986888;28;20603;-57
2022/08/11 10:28:28;;;;;;;;;;;27.50;46.70;;;;;;4989410;28;19957;-54
2022/08/11 10:36:24;;;;;;;;;;;27.70;45.40;;;;;;4993099;28;20012;-56
2022/08/11 10:38:51;;;;;;;;;;;27.80;45.60;;;;;;4989476;28;20429;-56
2022/08/11 10:44:03;;;;;;;;;;;27.90;45.50;;;;;;4989327;28;19965;-56
2022/08/11 10:49:13;;;;;;;;;;;28.00;45.00;;;;;;4992800;28;20001;-57
2022/08/11 10:59:53;;;;;;;;;;;28.10;44.00;;;;;;5049698;28;19939;-56
2022/08/11 11:02:20;;;;;;;;;;;28.10;43.80;;;;;;5050639;28;19917;-58
2022/08/11 11:04:55;;;;;;;;;;;28.20;43.50;;;;;;5050098;28;19913;-58
2022/08/11 11:07:22;;;;;;;;;;;28.20;44.10;;;;;;5048668;28;19923;-57
2022/08/11 11:09:54;;;;;;;;;;;28.30;43.50;;;;;;5049847;28;19924;-57
2022/08/11 11:18:00;;;;;;;;;;;28.30;43.50;;;;;;5049884;28;19932;-57
2022/08/11 11:20:27;;;;;;;;;;;28.40;43.50;;;;;;5049726;28;20361;-56
2022/08/11 11:22:55;;;;;;;;;;;28.40;43.50;;;;;;5049428;28;19982;-55
2022/08/11 11:25:20;;;;;;;;;;;28.40;43.60;;;;;;5049138;28;20401;-57
2022/08/11 11:27:49;;;;;;;;;;;28.40;43.60;;;;;;5048946;28;19913;-55
2022/08/11 11:30:15;;;;;;;;;;;28.40;43.10;;;;;;5047151;28;19913;-57
2022/08/11 11:33:03;;;;;;;;;;;28.50;43.50;;;;;;5049118;28;20008;-56
2022/08/11 11:35:38;;;;;;;;;;;28.50;43.20;;;;;;5048943;28;20381;-57
2022/08/11 11:38:08;;;;;;;;;;;28.40;43.40;;;;;;5048531;28;19912;-58
2022/08/11 11:40:36;;;;;;;;;;;28.40;43.50;;;;;;5048126;28;20376;-57
2022/08/11 11:43:02;;;;;;;;;;;28.60;43.20;;;;;;5049233;28;19962;-56
2022/08/11 11:45:28;;;;;;;;;;;28.60;43.00;;;;;;5049606;28;19913;-56
2022/08/11 11:47:54;;;;;;;;;;;28.60;43.00;;;;;;5048547;28;20585;-56
2022/08/11 11:50:23;;;;;;;;;;;28.70;43.60;;;;;;5049005;28;19923;-57
2022/08/11 11:52:49;;;;;;;;;;;28.70;42.90;;;;;;5048943;28;19928;-58
2022/08/11 11:55:15;;;;;;;;;;;28.70;43.20;;;;;;5047460;28;19917;-58
2022/08/11 12:03:10;;;;;;;;;;;28.70;43.50;;;;;;5048395;28;20347;-57
2022/08/11 12:05:36;;;;;;;;;;;28.80;43.10;;;;;;5049339;28;20047;-58
2022/08/11 12:08:10;;;;;;;;;;;28.80;42.70;;;;;;5048486;28;19913;-57
2022/08/11 12:10:37;;;;;;;;;;;28.80;42.40;;;;;;5044912;28;20397;-56
2022/08/11 12:15:47;;;;;;;;;;;28.90;41.90;;;;;;5046852;28;20299;-58
2022/08/11 12:18:14;;;;;;;;;;;28.90;41.80;;;;;;5048116;28;19917;-58
2022/08/11 12:20:41;;;;;;;;;;;28.90;42.40;;;;;;5047676;28;19909;-58
2022/08/11 12:28:35;;;;;;;;;;;29.10;42.60;;;;;;5045808;28;19920;-57
2022/08/11 12:31:02;;;;;;;;;;;29.20;41.70;;;;;;5048302;28;19916;-56
2022/08/11 12:33:27;;;;;;;;;;;29.20;41.60;;;;;;5045265;28;19920;-56
2022/08/11 12:35:56;;;;;;;;;;;29.20;41.30;;;;;;5048643;28;19974;-56
2022/08/11 12:38:22;;;;;;;;;;;29.10;41.30;;;;;;5048480;28;19963;-57
2022/08/11 12:46:22;;;;;;;;;;;29.10;41.40;;;;;;5048696;28;19920;-58
2022/08/11 12:54:40;;;;;;;;;;;29.30;41.10;;;;;;5046745;28;20340;-54
2022/08/11 13:05:20;;;;;;;;;;;29.30;42.00;;;;;;5047074;28;19923;-58
2022/08/11 13:07:46;;;;;;;;;;;29.20;41.10;;;;;;5047443;28;20293;-58
2022/08/11 13:10:13;;;;;;;;;;;29.20;41.30;;;;;;5048890;28;19920;-58
2022/08/11 13:12:49;;;;;;;;;;;29.20;41.40;;;;;;5047976;28;20371;-56
2022/08/11 13:15:14;;;;;;;;;;;29.30;41.80;;;;;;5048474;28;19912;-57
2022/08/11 13:17:43;;;;;;;;;;;29.30;41.00;;;;;;5047748;28;20369;-55
2022/08/11 13:20:11;;;;;;;;;;;29.40;41.10;;;;;;5047592;28;19917;-55
2022/08/11 13:22:38;;;;;;;;;;;29.40;41.00;;;;;;5045408;28;19967;-56
2022/08/11 13:25:04;;;;;;;;;;;29.40;41.00;;;;;;5047640;28;20029;-54
2022/08/11 13:27:30;;;;;;;;;;;29.30;41.00;;;;;;5047686;28;19913;-61
2022/08/11 13:32:44;;;;;;;;;;;29.50;41.00;;;;;;5008967;28;19921;-52
2022/08/11 13:35:12;;;;;;;;;;;29.60;41.10;;;;;;5009601;28;19980;-56
2022/08/11 13:37:38;;;;;;;;;;;29.60;40.60;;;;;;5008385;28;19925;-58
2022/08/11 13:40:04;;;;;;;;;;;29.50;40.70;;;;;;5009637;28;20009;-57
2022/08/11 13:42:29;;;;;;;;;;;29.50;40.60;;;;;;5011576;28;19921;-57
2022/08/11 13:44:56;;;;;;;;;;;29.50;40.70;;;;;;5007964;28;20478;-56
2022/08/11 13:47:22;;;;;;;;;;;29.50;40.60;;;;;;5009030;28;19922;-56
2022/08/11 13:49:49;;;;;;;;;;;29.60;40.90;;;;;;5009110;28;19914;-55
2022/08/11 13:52:16;;;;;;;;;;;29.60;41.20;;;;;;5008394;28;20354;-56
2022/08/11 13:54:43;;;;;;;;;;;29.70;41.10;;;;;;5008610;28;20297;-55
2022/08/11 13:57:11;;;;;;;;;;;29.70;40.70;;;;;;5007745;28;19918;-56
2022/08/11 13:59:37;;;;;;;;;;;29.70;40.90;;;;;;5008874;28;19913;-55
2022/08/11 14:02:05;;;;;;;;;;;29.70;40.60;;;;;;5008863;28;19925;-56
2022/08/11 14:04:54;;;;;;;;;;;29.80;40.90;;;;;;5009151;28;19917;-53
2022/08/11 14:07:21;;;;;;;;;;;29.90;41.00;;;;;;4998046;28;19913;-56
2022/08/11 14:09:47;;;;;;;;;;;29.90;40.80;;;;;;5019843;28;19996;-56
2022/08/11 14:15:18;;;;;;;;;;;29.80;40.70;;;;;;5031224;28;19920;-55
2022/08/11 14:17:48;;;;;;;;;;;29.80;40.40;;;;;;5029102;28;19914;-54
2022/08/11 14:20:15;;;;;;;;;;;29.80;40.20;;;;;;5030228;28;20293;-52
2022/08/11 14:22:42;;;;;;;;;;;29.90;40.10;;;;;;5030426;28;20000;-55
2022/08/11 14:25:08;;;;;;;;;;;29.90;40.00;;;;;;5031019;28;19913;-56
2022/08/11 14:27:34;;;;;;;;;;;29.90;40.00;;;;;;5030729;28;19913;-55
2022/08/11 14:29:59;;;;;;;;;;;29.90;40.10;;;;;;5030843;28;19914;-56
2022/08/11 14:32:25;;;;;;;;;;;30.00;40.30;;;;;;5040906;28;19929;-55
2022/08/11 14:34:51;;;;;;;;;;;30.00;40.10;;;;;;5049937;28;20007;-56
2022/08/11 14:37:24;;;;;;;;;;;30.00;40.00;;;;;;5049099;28;20693;-56
2022/08/11 14:39:55;;;;;;;;;;;30.00;40.10;;;;;;5050294;28;19913;-56
2022/08/11 14:47:53;;;;;;;;;;;30.10;40.50;;;;;;5049428;28;20415;-55
2022/08/11 14:50:23;;;;;;;;;;;30.10;40.30;;;;;;5049629;28;19952;-56
2022/08/11 14:52:50;;;;;;;;;;;30.10;40.30;;;;;;5050023;28;19924;-57
2022/08/11 14:58:01;;;;;;;;;;;30.00;40.30;;;;;;5049705;28;19970;-56
2022/08/11 15:00:26;;;;;;;;;;;30.10;40.60;;;;;;5049953;28;19912;-55
2022/08/11 15:03:11;;;;;;;;;;;30.10;40.30;;;;;;5049295;28;19965;-54
2022/08/11 15:05:37;;;;;;;;;;;30.20;40.10;;;;;;5046781;28;20015;-56
2022/08/11 15:08:03;;;;;;;;;;;30.20;39.80;;;;;;5049355;28;19912;-55
2022/08/11 15:10:29;;;;;;;;;;;30.10;39.90;;;;;;5039984;28;19939;-56
2022/08/11 15:12:55;;;;;;;;;;;30.20;40.20;;;;;;5049810;28;20385;-56
2022/08/11 15:18:06;;;;;;;;;;;30.30;39.90;;;;;;5049033;28;20645;-56
2022/08/11 15:26:06;;;;;;;;;;;30.30;40.10;;;;;;5047374;28;19962;-56
2022/08/11 15:39:28;;;;;;;;;;;30.30;40.00;;;;;;5048253;28;20289;-52
2022/08/11 15:47:36;;;;;;;;;;;30.40;39.70;;;;;;5050433;28;20296;-55
2022/08/11 15:50:04;;;;;;;;;;;30.30;39.60;;;;;;5044911;28;19959;-54
2022/08/11 15:52:33;;;;;;;;;;;30.30;39.70;;;;;;5047882;28;19916;-53
2022/08/11 15:55:01;;;;;;;;;;;30.40;39.70;;;;;;5049949;28;19913;-53
2022/08/11 16:05:42;;;;;;;;;;;30.30;40.40;;;;;;5045052;28;20395;-56
2022/08/11 16:08:08;;;;;;;;;;;30.30;40.10;;;;;;5050877;28;19986;-56
2022/08/11 16:10:34;;;;;;;;;;;30.30;39.90;;;;;;5050947;28;19936;-56
2022/08/11 16:18:19;;;;;;;;;;;30.30;39.60;;;;;;5050796;28;19915;-55
2022/08/11 16:20:46;;;;;;;;;;;30.30;39.50;;;;;;5050721;28;20015;-55
2022/08/11 16:23:13;;;;;;;;;;;30.30;39.50;;;;;;5050348;28;19920;-56
2022/08/11 16:25:39;;;;;;;;;;;30.30;39.50;;;;;;5047521;28;19909;-55
2022/08/11 16:28:05;;;;;;;;;;;30.30;39.00;;;;;;5047499;28;20008;-56
2022/08/11 16:30:32;;;;;;;;;;;30.40;39.50;;;;;;5049611;28;20043;-56
2022/08/11 16:32:59;;;;;;;;;;;30.40;39.50;;;;;;5050077;28;19921;-54
2022/08/11 16:40:56;;;;;;;;;;;30.30;39.50;;;;;;5050599;28;20427;-56
2022/08/11 16:48:53;;;;;;;;;;;30.50;39.60;;;;;;5050580;28;19955;-54
2022/08/11 16:51:19;;;;;;;;;;;30.40;39.00;;;;;;5050321;28;19909;-56
2022/08/11 16:53:46;;;;;;;;;;;30.30;39.00;;;;;;5050327;28;20393;-56
2022/08/11 16:56:15;;;;;;;;;;;30.40;39.30;;;;;;5050201;28;19912;-56
2022/08/11 17:01:26;;;;;;;;;;;30.30;39.50;;;;;;5050128;28;20380;-56
2022/08/11 17:16:05;;;;;;;;;;;30.80;39.90;;;;;;5052702;28;20376;-56
2022/08/11 17:17:51;;;;;;;;;;;31.70;39.70;;;;;;5049778;28;19909;-56
2022/08/11 17:20:18;;;;;;;;;;;32.50;39.60;;;;;;5054535;28;19909;-56
2022/08/11 17:25:30;;;;;;;;;;;33.80;38.80;;;;;;5053496;28;20286;-56
2022/08/11 17:27:55;;;;;;;;;;;34.30;38.50;;;;;;5053121;28;19963;-56
2022/08/11 17:30:22;;;;;;;;;;;34.80;38.20;;;;;;5053442;28;20386;-54
2022/08/11 17:35:37;;;;;;;;;;;35.30;37.00;;;;;;5052197;28;19979;-54
2022/08/11 17:38:08;;;;;;;;;;;35.50;37.10;;;;;;5053264;28;19909;-53
2022/08/11 17:40:37;;;;;;;;;;;35.60;36.50;;;;;;5050519;28;19971;-56
2022/08/11 17:48:32;;;;;;;;;;;35.80;36.60;;;;;;5053173;28;19908;-56
2022/08/11 17:50:59;;;;;;;;;;;36.00;36.70;;;;;;5052948;28;19909;-57
2022/08/11 18:01:45;;;;;;;;;;;35.90;35.30;;;;;;5012709;28;19925;-55
2022/08/11 18:04:12;;;;;;;;;;;35.50;35.10;;;;;;5015105;28;19909;-56
2022/08/11 18:06:39;;;;;;;;;;;34.90;35.10;;;;;;5014751;28;19963;-56
